Time;durP1;ratioP1;P1;durP2;ratioP2;P2;SDS_P1;SDS_P2;PMS_P1;PMS_P2;Temp;Humidity;BMP_temperature;BMP_pressure;BME280_temperature;BME280_humidity;BME280_pressure;Samples;Min_cycle;Max_cycle;Signal;HPM_P1;HPM_P2
2022/05/02 00:01:09;;;;;;;1.67;0.88;;;5.10;56.40;;;;;;4108801;28;20027;-87
2022/05/02 00:03:11;;;;;;;4.35;0.80;;;5.20;56.50;;;;;;4117912;28;20111;-86
2022/05/02 00:05:12;;;;;;;1.45;0.90;;;5.10;56.60;;;;;;4106472;28;20154;-86
2022/05/02 00:07:12;;;;;;;2.38;0.80;;;5.10;56.60;;;;;;4106445;28;20472;-87
2022/05/02 00:09:13;;;;;;;2.10;1.00;;;5.10;56.60;;;;;;4103086;28;20049;-86
2022/05/02 00:11:13;;;;;;;2.80;0.80;;;5.00;56.50;;;;;;4104104;28;20031;-87
2022/05/02 00:13:14;;;;;;;0.98;0.47;;;5.00;56.60;;;;;;4122456;28;20034;-87
2022/05/02 00:15:15;;;;;;;1.00;0.60;;;5.00;56.80;;;;;;4103420;28;20035;-86
2022/05/02 00:17:16;;;;;;;0.98;0.77;;;4.90;56.90;;;;;;4107087;28;20108;-88
2022/05/02 00:19:17;;;;;;;1.60;0.70;;;5.00;56.80;;;;;;4104866;28;20030;-87
2022/05/02 00:21:17;;;;;;;1.38;0.77;;;4.80;57.00;;;;;;4108576;28;20598;-86
2022/05/02 00:23:18;;;;;;;3.20;0.80;;;4.80;57.10;;;;;;4099123;28;20034;-89
2022/05/02 00:25:19;;;;;;;1.67;1.00;;;4.80;57.20;;;;;;4104163;28;20475;-87
2022/05/02 00:27:20;;;;;;;1.23;0.90;;;4.70;57.10;;;;;;4089680;28;20654;-86
2022/05/02 00:29:21;;;;;;;3.53;0.75;;;4.70;57.10;;;;;;4108917;28;20023;-86
2022/05/02 00:31:22;;;;;;;1.60;0.80;;;4.70;57.20;;;;;;4129170;28;20034;-86
2022/05/02 00:33:22;;;;;;;1.50;0.80;;;4.70;57.30;;;;;;4103647;28;20544;-87
2022/05/02 00:35:24;;;;;;;1.40;0.85;;;4.60;57.30;;;;;;4102483;28;20027;-86
2022/05/02 00:37:25;;;;;;;3.08;1.00;;;4.60;57.90;;;;;;4107065;28;20100;-86
2022/05/02 00:39:25;;;;;;;2.28;1.10;;;4.60;57.50;;;;;;4125851;28;20057;-87
2022/05/02 00:41:27;;;;;;;3.25;0.80;;;4.50;57.40;;;;;;4124410;28;20035;-87
2022/05/02 00:43:28;;;;;;;1.30;0.80;;;4.50;57.50;;;;;;4110374;28;20099;-86
2022/05/02 00:45:34;;;;;;;3.90;0.90;;;4.50;57.60;;;;;;4106736;28;20031;-86
2022/05/02 00:47:35;;;;;;;3.70;0.98;;;4.50;57.70;;;;;;4110190;28;20038;-86
2022/05/02 00:49:39;;;;;;;1.88;0.90;;;4.40;57.80;;;;;;4110418;28;20042;-86
2022/05/02 00:51:40;;;;;;;2.45;1.10;;;4.50;57.80;;;;;;4108640;28;20152;-88
2022/05/02 00:53:43;;;;;;;1.75;0.93;;;4.40;57.90;;;;;;4108534;28;20028;-87
2022/05/02 00:55:45;;;;;;;2.33;1.08;;;4.30;57.90;;;;;;4106435;28;20038;-88
2022/05/02 00:57:45;;;;;;;2.55;1.00;;;4.30;58.00;;;;;;4111451;28;20026;-87
2022/05/02 00:59:46;;;;;;;1.80;0.70;;;4.30;58.00;;;;;;4106025;28;20030;-87
2022/05/02 01:01:47;;;;;;;4.35;1.00;;;4.30;57.90;;;;;;4108384;28;20035;-87
2022/05/02 01:03:49;;;;;;;1.83;1.08;;;4.30;58.00;;;;;;4110299;28;20058;-86
2022/05/02 01:08:09;;;;;;;1.98;1.13;;;4.30;58.10;;;;;;4100291;28;20059;-88
2022/05/02 01:10:13;;;;;;;2.05;0.90;;;4.20;58.10;;;;;;4109460;28;20029;-86
2022/05/02 01:12:57;;;;;;;2.88;0.98;;;4.20;58.20;;;;;;4126043;28;20030;-87
2022/05/02 01:21:46;;;;;;;3.78;1.02;;;4.00;58.30;;;;;;4291011;23;20058;-84
2022/05/02 01:26:18;;;;;;;4.55;1.17;;;4.00;58.50;;;;;;4071462;29;20145;-83
2022/05/02 01:28:23;;;;;;;1.35;0.90;;;4.00;58.50;;;;;;4078168;23;20059;-86
2022/05/02 01:30:24;;;;;;;2.13;1.10;;;4.00;58.80;;;;;;4070671;29;20031;-88
2022/05/02 01:32:24;;;;;;;1.70;0.93;;;4.00;58.80;;;;;;4103985;28;20038;-86
2022/05/02 01:34:25;;;;;;;3.78;1.30;;;3.90;58.90;;;;;;4093855;28;20067;-86
2022/05/02 01:36:28;;;;;;;1.52;0.93;;;3.90;59.10;;;;;;4075241;29;20710;-87
2022/05/02 01:38:47;;;;;;;3.38;1.10;;;3.80;59.10;;;;;;4077266;28;20131;-87
2022/05/02 01:40:49;;;;;;;3.15;1.10;;;3.90;59.10;;;;;;4072284;29;20612;-88
2022/05/02 01:43:02;;;;;;;2.58;1.00;;;3.80;59.10;;;;;;4073978;29;20518;-87
2022/05/02 01:45:07;;;;;;;2.45;1.10;;;3.80;59.40;;;;;;4104877;23;20049;-83
2022/05/02 01:47:08;;;;;;;1.63;0.90;;;3.80;59.30;;;;;;4094119;28;20037;-82
2022/05/02 01:49:09;;;;;;;1.17;0.90;;;3.80;59.40;;;;;;4094273;28;20045;-83
2022/05/02 01:51:09;;;;;;;1.92;1.02;;;3.70;59.40;;;;;;4095411;28;20056;-83
2022/05/02 01:53:10;;;;;;;1.27;0.90;;;3.70;59.60;;;;;;4098207;28;20043;-83
2022/05/02 01:55:10;;;;;;;3.58;0.95;;;3.70;59.70;;;;;;4096283;28;20027;-83
2022/05/02 01:57:11;;;;;;;3.10;1.20;;;3.60;59.70;;;;;;4093312;28;20536;-83
2022/05/02 01:59:12;;;;;;;1.75;1.10;;;3.60;59.70;;;;;;4095474;28;20031;-83
2022/05/02 02:01:12;;;;;;;4.88;1.20;;;3.60;59.80;;;;;;4093987;28;20131;-83
2022/05/02 02:03:13;;;;;;;1.52;1.00;;;3.60;59.80;;;;;;4095728;28;20035;-83
2022/05/02 02:07:33;;;;;;;1.73;1.13;;;3.50;60.00;;;;;;4093745;28;20062;-83
2022/05/02 02:09:33;;;;;;;2.67;1.23;;;3.50;60.10;;;;;;4093277;28;20024;-82
2022/05/02 02:11:34;;;;;;;4.28;1.10;;;3.50;60.20;;;;;;4092768;28;20521;-82
2022/05/02 02:13:36;;;;;;;1.23;0.90;;;3.50;60.30;;;;;;4096889;28;20162;-81
2022/05/02 02:15:36;;;;;;;1.90;1.23;;;3.50;60.40;;;;;;4093371;28;20042;-82
2022/05/02 02:17:37;;;;;;;2.22;1.33;;;3.50;60.40;;;;;;4093721;28;20043;-83
2022/05/02 02:19:37;;;;;;;2.05;1.33;;;3.50;60.50;;;;;;4107180;28;20038;-81
2022/05/02 02:21:38;;;;;;;2.20;1.10;;;3.40;60.50;;;;;;4091680;28;20485;-82
2022/05/02 02:23:39;;;;;;;4.32;1.50;;;3.40;60.60;;;;;;4108321;28;20102;-82
2022/05/02 02:25:40;;;;;;;2.53;1.17;;;3.40;60.70;;;;;;4090582;28;20197;-82
2022/05/02 02:27:41;;;;;;;7.75;1.48;;;3.40;60.90;;;;;;4108564;28;20389;-81
2022/05/02 02:29:42;;;;;;;3.17;1.17;;;3.40;60.80;;;;;;4094507;28;20122;-82
2022/05/02 02:31:42;;;;;;;3.55;1.30;;;3.40;60.90;;;;;;4091755;28;20027;-82
2022/05/02 02:33:43;;;;;;;4.05;1.23;;;3.30;60.80;;;;;;4094599;28;20153;-82
2022/05/02 02:35:43;;;;;;;3.08;1.42;;;3.30;61.00;;;;;;4093545;28;20154;-82
2022/05/02 02:37:44;;;;;;;2.03;1.00;;;3.30;61.00;;;;;;4091196;28;20066;-82
2022/05/02 02:39:45;;;;;;;5.22;1.10;;;3.30;61.90;;;;;;4096999;28;22160;-82
2022/05/02 02:41:46;;;;;;;1.75;1.20;;;3.30;61.20;;;;;;4096855;28;20046;-82
2022/05/02 02:43:46;;;;;;;2.42;1.10;;;3.30;61.20;;;;;;4097798;28;20512;-82
2022/05/02 02:45:47;;;;;;;4.50;1.27;;;3.20;61.10;;;;;;4112768;28;20444;-82
2022/05/02 02:47:48;;;;;;;2.67;1.48;;;3.20;61.20;;;;;;4090946;28;20099;-82
2022/05/02 02:49:48;;;;;;;3.35;1.50;;;3.20;62.10;;;;;;4099787;28;20062;-83
2022/05/02 02:51:49;;;;;;;4.93;1.60;;;3.20;61.50;;;;;;4097446;28;20524;-82
2022/05/02 02:53:51;;;;;;;3.78;1.27;;;3.20;61.60;;;;;;4096248;28;20050;-82
2022/05/02 02:55:51;;;;;;;3.58;1.52;;;3.10;61.50;;;;;;4095217;28;20039;-81
2022/05/02 02:57:52;;;;;;;4.80;1.33;;;3.10;61.70;;;;;;4106158;28;20054;-81
2022/05/02 02:59:53;;;;;;;3.55;1.50;;;3.10;61.90;;;;;;4088803;28;20039;-81
2022/05/02 03:01:55;;;;;;;2.97;1.60;;;3.10;62.00;;;;;;4092372;28;20031;-81
2022/05/02 03:03:57;;;;;;;3.05;1.50;;;3.00;62.00;;;;;;4092451;28;20058;-81
2022/05/02 03:06:04;;;;;;;3.03;1.42;;;3.10;62.20;;;;;;4094348;28;20034;-81
2022/05/02 03:08:05;;;;;;;2.60;1.35;;;3.00;62.30;;;;;;4092044;28;20486;-82
2022/05/02 03:10:06;;;;;;;3.22;1.30;;;3.00;62.30;;;;;;4093297;28;20042;-81
2022/05/02 03:12:07;;;;;;;7.30;1.75;;;3.00;62.30;;;;;;4090792;28;20113;-81
2022/05/02 03:14:07;;;;;;;4.57;1.50;;;3.00;62.40;;;;;;4092281;28;20043;-81
2022/05/02 03:16:10;;;;;;;3.75;1.75;;;3.00;62.40;;;;;;4092338;28;20032;-81
2022/05/02 03:18:11;;;;;;;5.15;1.85;;;2.90;62.30;;;;;;4093481;28;20535;-81
2022/05/02 03:20:12;;;;;;;4.30;1.80;;;2.90;62.40;;;;;;4090184;28;20091;-80
2022/05/02 03:22:12;;;;;;;3.95;1.70;;;2.90;62.60;;;;;;4093110;28;20042;-81
2022/05/02 03:24:13;;;;;;;3.55;1.45;;;2.90;62.70;;;;;;4092345;28;20382;-82
2022/05/02 03:26:14;;;;;;;4.55;1.58;;;2.90;63.00;;;;;;4088176;28;20035;-81
2022/05/02 03:28:15;;;;;;;4.18;1.60;;;2.90;63.10;;;;;;4093527;28;20039;-80
2022/05/02 03:30:16;;;;;;;3.03;1.58;;;2.80;63.30;;;;;;4092404;28;20031;-80
2022/05/02 03:32:17;;;;;;;3.97;1.60;;;2.80;63.40;;;;;;4091044;28;20469;-82
2022/05/02 03:34:18;;;;;;;3.80;1.45;;;2.80;63.50;;;;;;4092233;28;20039;-81
2022/05/02 03:36:18;;;;;;;2.50;1.60;;;2.80;63.50;;;;;;4091624;28;20102;-81
2022/05/02 03:38:19;;;;;;;4.50;1.50;;;2.90;63.60;;;;;;4092669;28;20051;-82
2022/05/02 03:40:20;;;;;;;2.90;1.60;;;2.80;63.80;;;;;;4094877;28;20514;-81
2022/05/02 03:42:21;;;;;;;3.08;1.83;;;2.70;63.70;;;;;;4095434;28;20039;-82
2022/05/02 03:44:22;;;;;;;4.35;1.67;;;2.70;63.70;;;;;;4095073;28;20102;-82
2022/05/02 03:46:23;;;;;;;3.00;1.75;;;2.70;63.70;;;;;;4097382;28;20377;-81
2022/05/02 03:48:26;;;;;;;5.50;1.75;;;2.70;63.70;;;;;;4093724;28;20134;-82
2022/05/02 03:50:27;;;;;;;3.67;1.35;;;2.70;63.80;;;;;;4095487;28;20082;-81
2022/05/02 03:52:27;;;;;;;7.18;1.73;;;2.70;63.80;;;;;;4093095;28;20039;-81
2022/05/02 03:54:28;;;;;;;3.42;1.55;;;2.60;63.80;;;;;;4098967;28;20065;-81
2022/05/02 03:56:29;;;;;;;3.35;1.55;;;2.60;63.90;;;;;;4091576;28;20066;-81
2022/05/02 03:58:29;;;;;;;7.40;1.80;;;2.60;64.00;;;;;;4098871;28;20162;-81
2022/05/02 04:00:30;;;;;;;2.78;1.50;;;2.60;64.10;;;;;;4098954;28;20034;-81
2022/05/02 04:02:30;;;;;;;4.28;1.85;;;2.60;64.10;;;;;;4091893;28;20035;-81
2022/05/02 04:04:31;;;;;;;5.57;2.08;;;2.60;64.30;;;;;;4081536;29;21298;-81
2022/05/02 04:06:32;;;;;;;3.55;1.67;;;2.70;64.40;;;;;;4111185;28;20594;-82
2022/05/02 04:08:33;;;;;;;2.85;1.73;;;2.60;64.40;;;;;;4096435;28;20095;-81
2022/05/02 04:10:33;;;;;;;6.03;2.00;;;2.60;64.50;;;;;;4096560;28;20035;-81
2022/05/02 04:12:37;;;;;;;8.68;1.90;;;2.60;64.60;;;;;;4097717;28;20677;-81
2022/05/02 04:14:38;;;;;;;3.53;1.98;;;2.60;64.70;;;;;;4098208;28;20053;-81
2022/05/02 04:16:38;;;;;;;3.80;1.75;;;2.60;64.80;;;;;;4095213;28;20098;-81
2022/05/02 04:18:40;;;;;;;3.38;1.80;;;2.60;64.90;;;;;;4093240;28;20035;-81
2022/05/02 04:20:41;;;;;;;7.22;2.22;;;2.60;65.20;;;;;;4096720;28;20031;-82
2022/05/02 04:22:41;;;;;;;5.43;2.08;;;2.60;65.50;;;;;;4095021;28;20078;-81
2022/05/02 04:24:42;;;;;;;3.65;1.70;;;2.60;66.00;;;;;;4109674;28;20425;-82
2022/05/02 04:26:43;;;;;;;8.63;2.20;;;2.70;66.60;;;;;;4088909;28;20043;-81
2022/05/02 04:28:44;;;;;;;3.72;2.33;;;2.70;67.40;;;;;;4090617;28;20027;-81
2022/05/02 04:30:44;;;;;;;7.00;2.40;;;2.80;68.00;;;;;;4093480;28;20034;-81
2022/05/02 04:32:45;;;;;;;7.68;2.58;;;2.80;68.70;;;;;;4092312;28;20058;-81
2022/05/02 04:34:45;;;;;;;7.15;2.58;;;2.90;69.20;;;;;;4092724;28;20110;-81
2022/05/02 04:36:46;;;;;;;6.45;2.58;;;3.00;69.80;;;;;;4096295;28;20057;-81
2022/05/02 04:38:47;;;;;;;3.72;2.50;;;3.10;70.40;;;;;;4094152;28;20039;-82
2022/05/02 04:40:47;;;;;;;5.68;3.00;;;3.20;70.80;;;;;;4110226;28;20053;-81
2022/05/02 04:42:48;;;;;;;4.40;2.58;;;3.30;71.10;;;;;;4091772;28;20187;-81
2022/05/02 04:44:52;;;;;;;5.00;3.10;;;3.40;71.30;;;;;;4106428;28;20034;-81
2022/05/02 04:46:52;;;;;;;6.43;2.97;;;3.40;71.60;;;;;;4090846;28;21149;-82
2022/05/02 04:48:53;;;;;;;4.20;2.65;;;3.60;71.90;;;;;;4098133;28;20027;-82
2022/05/02 04:50:54;;;;;;;10.25;3.20;;;3.70;72.00;;;;;;4094122;28;20059;-82
2022/05/02 04:52:54;;;;;;;12.68;3.10;;;3.80;72.00;;;;;;4093733;28;20056;-81
2022/05/02 04:54:55;;;;;;;8.65;3.22;;;3.90;72.00;;;;;;4095892;28;20035;-83
2022/05/02 04:56:56;;;;;;;9.88;2.88;;;4.20;72.10;;;;;;4093251;28;20087;-81
2022/05/02 04:58:56;;;;;;;7.55;3.00;;;4.20;72.00;;;;;;4095274;28;20079;-81
2022/05/02 05:00:57;;;;;;;4.68;2.83;;;4.30;71.80;;;;;;4093816;28;20098;-81
2022/05/02 05:02:57;;;;;;;12.27;3.17;;;4.50;71.70;;;;;;4095715;28;20023;-81
2022/05/02 05:04:58;;;;;;;6.15;3.13;;;4.60;71.60;;;;;;4096587;28;20031;-81
2022/05/02 05:07:00;;;;;;;6.85;2.80;;;4.70;71.60;;;;;;4104186;28;20023;-81
2022/05/02 05:09:00;;;;;;;11.15;3.13;;;4.80;71.60;;;;;;4096799;28;20059;-81
2022/05/02 05:11:10;;;;;;;6.68;3.15;;;5.00;71.60;;;;;;4092677;28;20545;-81
2022/05/02 05:13:19;;;;;;;7.68;3.28;;;5.10;71.50;;;;;;4100766;28;20449;-80
2022/05/02 05:17:59;;;;;;;8.68;2.80;;;5.40;71.10;;;;;;4093892;28;20043;-83
2022/05/02 05:21:13;;;;;;;6.47;3.08;;;5.60;71.00;;;;;;4090101;28;20109;-82
2022/05/02 05:23:28;;;;;;;10.80;3.05;;;5.70;71.20;;;;;;4045664;29;21097;-82
2022/05/02 05:25:43;;;;;;;7.30;2.90;;;5.90;70.90;;;;;;4076558;28;20043;-82
2022/05/02 05:27:55;;;;;;;5.57;2.85;;;6.10;70.90;;;;;;4085904;28;20054;-82
2022/05/02 05:30:05;;;;;;;5.53;3.40;;;6.20;71.00;;;;;;4079729;29;20035;-82
2022/05/02 05:32:30;;;;;;;5.53;2.80;;;6.30;71.30;;;;;;4088087;28;20043;-82
2022/05/02 05:34:52;;;;;;;5.20;3.22;;;6.50;71.90;;;;;;4088472;28;20059;-83
2022/05/02 05:37:12;;;;;;;14.60;3.60;;;6.60;71.80;;;;;;4093259;29;20031;-82
2022/05/02 05:39:38;;;;;;;10.45;3.40;;;6.80;72.00;;;;;;4088957;28;20042;-82
2022/05/02 05:41:58;;;;;;;5.70;2.78;;;7.00;72.60;;;;;;4091500;28;20521;-82
2022/05/02 05:44:35;;;;;;;5.57;2.90;;;7.10;72.30;;;;;;4092048;29;20043;-83
2022/05/02 05:47:03;;;;;;;3.75;2.45;;;7.30;71.90;;;;;;4089985;28;20047;-83
2022/05/02 05:49:13;;;;;;;4.43;2.60;;;7.50;71.10;;;;;;4071066;29;20505;-83
2022/05/02 05:51:17;;;;;;;8.45;2.72;;;7.60;70.50;;;;;;4087049;28;20046;-83
2022/05/02 05:53:38;;;;;;;;;;;7.70;70.10;;;;;;4085773;28;20039;-83
2022/05/02 05:55:53;;;;;;;8.90;2.72;;;7.80;70.90;;;;;;4085080;28;19926;-83
2022/05/02 05:57:58;;;;;;;4.38;2.53;;;7.90;69.80;;;;;;4091949;28;20067;-82
2022/05/02 06:00:10;;;;;;;4.32;2.50;;;8.00;69.70;;;;;;4090849;28;20069;-82
2022/05/02 06:02:19;;;;;;;4.65;2.50;;;8.10;69.40;;;;;;4089737;28;20042;-83
2022/05/02 06:04:22;;;;;;;6.78;2.70;;;8.20;68.90;;;;;;4090827;28;20057;-83
2022/05/02 06:06:23;;;;;;;4.47;2.45;;;8.30;68.50;;;;;;4097559;28;20170;-83
2022/05/02 06:08:25;;;;;;;4.88;2.28;;;8.40;68.30;;;;;;4105016;28;20034;-82
2022/05/02 06:10:28;;;;;;;5.25;2.42;;;8.50;68.20;;;;;;4089962;28;20024;-83
2022/05/02 06:12:31;;;;;;;6.13;2.83;;;8.60;68.00;;;;;;4093581;28;20466;-83
2022/05/02 06:19:26;;;;;;;6.15;2.38;;;8.80;66.90;;;;;;4090152;28;20038;-82
2022/05/02 06:21:27;;;;;;;3.55;2.30;;;8.90;66.50;;;;;;4086338;28;20535;-83
2022/05/02 06:23:51;;;;;;;4.10;2.10;;;8.90;66.20;;;;;;4085342;28;20055;-82
2022/05/02 06:25:54;;;;;;;5.38;2.50;;;9.00;66.10;;;;;;4091439;28;20042;-83
2022/05/02 06:27:57;;;;;;;3.80;2.10;;;9.10;65.80;;;;;;4092801;28;20790;-85
2022/05/02 06:30:01;;;;;;;2.88;2.05;;;9.20;65.70;;;;;;4094450;28;20029;-83
2022/05/02 06:32:09;;;;;;;3.95;2.38;;;9.20;65.40;;;;;;4103440;28;20111;-84
2022/05/02 06:34:10;;;;;;;3.10;1.85;;;9.30;65.30;;;;;;4104601;28;20113;-83
2022/05/02 06:36:43;;;;;;;3.10;1.90;;;9.40;65.20;;;;;;4092684;29;20521;-83
2022/05/02 06:39:05;;;;;;;4.10;2.10;;;9.40;64.70;;;;;;4061514;29;20047;-82
2022/05/02 06:41:09;;;;;;;3.80;1.77;;;9.50;64.40;;;;;;4046423;29;20563;-84
2022/05/02 06:43:33;;;;;;;5.32;1.90;;;9.60;64.30;;;;;;4029556;29;20504;-83
2022/05/02 06:46:11;;;;;;;6.40;1.70;;;9.60;64.10;;;;;;4030158;29;20037;-83
2022/05/02 06:48:42;;;;;;;2.58;1.48;;;9.70;64.10;;;;;;4050893;29;20048;-84
2022/05/02 06:50:50;;;;;;;3.03;1.38;;;9.70;63.90;;;;;;4044541;29;20039;-82
2022/05/02 06:53:29;;;;;;;3.05;1.42;;;9.80;63.60;;;;;;4048969;29;21853;-83
2022/05/02 06:55:33;;;;;;;5.97;1.92;;;9.90;63.10;;;;;;4032745;29;20033;-84
2022/05/02 06:57:52;;;;;;;2.55;1.42;;;9.90;62.90;;;;;;4048410;29;20044;-83
2022/05/02 07:00:04;;;;;;;6.07;1.70;;;10.00;62.50;;;;;;4032330;29;20045;-83
2022/05/02 07:02:13;;;;;;;3.13;1.70;;;10.00;61.90;;;;;;4045271;29;20558;-83
2022/05/02 07:04:45;;;;;;;4.38;1.50;;;10.10;62.00;;;;;;4034703;29;20075;-84
2022/05/02 07:06:51;;;;;;;3.75;1.83;;;10.20;60.90;;;;;;4036456;29;20029;-82
2022/05/02 07:09:00;;;;;;;2.58;1.73;;;10.20;60.40;;;;;;4050566;29;20072;-83
2022/05/02 07:11:04;;;;;;;2.63;1.80;;;10.20;59.90;;;;;;4047934;29;20044;-84
2022/05/02 07:30:07;;;;;;;2.17;1.30;;;10.20;58.90;;;;;;4203031;27;20478;-81
2022/05/02 07:32:29;;;;;;;5.60;1.17;;;10.70;56.60;;;;;;4172088;28;20123;-82
2022/05/02 07:34:31;;;;;;;3.00;1.50;;;10.80;56.00;;;;;;4188495;28;20113;-83
2022/05/02 07:36:35;;;;;;;3.55;1.40;;;10.90;55.90;;;;;;4171730;28;20083;-83
2022/05/02 07:38:36;;;;;;;;;;;11.10;55.60;;;;;;4171150;28;20029;-84
2022/05/02 07:41:22;;;;;;;3.08;1.08;;;11.20;55.20;;;;;;4170433;28;20001;-83
2022/05/02 07:43:00;;;;;;;9.15;1.30;;;11.30;55.10;;;;;;4170830;28;20033;-82
2022/05/02 07:45:02;;;;;;;2.08;1.33;;;11.40;54.90;;;;;;4179217;28;20064;-84
2022/05/02 07:47:06;;;;;;;2.58;1.20;;;11.40;54.00;;;;;;4173542;28;20472;-84
2022/05/02 07:49:08;;;;;;;1.10;0.80;;;11.50;53.50;;;;;;4477931;22;20040;-84
2022/05/02 07:51:31;;;;;;;5.40;0.82;;;11.60;52.60;;;;;;4201622;28;20024;-83
2022/05/02 07:54:44;;;;;;;3.60;0.70;;;11.70;51.70;;;;;;4233479;27;20058;-84
2022/05/02 07:57:19;;;;;;;2.53;0.70;;;11.80;50.30;;;;;;4162895;28;20732;-84
2022/05/02 07:59:24;;;;;;;0.70;0.30;;;12.00;51.20;;;;;;4216767;28;20477;-83
2022/05/02 08:01:25;;;;;;;0.60;0.20;;;12.00;48.40;;;;;;4209371;28;20082;-84
2022/05/02 08:07:27;;;;;;;0.40;0.30;;;12.00;46.00;;;;;;4146632;28;20431;-84
2022/05/02 08:09:56;;;;;;;1.52;0.28;;;12.20;45.70;;;;;;4147279;28;20049;-83
2022/05/02 08:12:39;;;;;;;1.17;0.30;;;12.20;45.60;;;;;;4213802;28;20024;-84
2022/05/02 08:14:48;;;;;;;2.67;0.50;;;12.30;45.00;;;;;;4232440;28;20016;-83
2022/05/02 08:17:18;;;;;;;1.40;0.40;;;12.40;44.80;;;;;;4233353;28;20046;-83
2022/05/02 08:19:36;;;;;;;3.65;0.40;;;12.40;45.00;;;;;;4235795;28;20062;-83
2022/05/02 08:21:49;;;;;;;0.55;0.25;;;12.40;44.90;;;;;;4234049;28;20019;-84
2022/05/02 08:53:56;;;;;;;1.65;0.45;;;11.70;44.20;;;;;;4239054;27;20907;-81
2022/05/02 08:56:33;;;;;;;0.85;0.20;;;12.30;40.90;;;;;;4188760;28;20059;-83
2022/05/02 08:58:48;;;;;;;1.17;0.20;;;12.40;39.30;;;;;;4214242;28;20552;-84
2022/05/02 09:01:27;;;;;;;1.75;0.30;;;12.70;40.00;;;;;;4218238;28;20036;-82
2022/05/02 09:03:44;;;;;;;0.40;0.30;;;12.70;39.50;;;;;;4188882;28;20429;-83
2022/05/02 09:06:02;;;;;;;;;;;12.90;39.50;;;;;;4189146;28;20080;-83
2022/05/02 09:08:42;;;;;;;2.80;0.30;;;13.00;39.60;;;;;;4186400;28;19915;-83
2022/05/02 09:10:58;;;;;;;0.93;0.30;;;13.10;38.40;;;;;;4184252;28;20044;-83
2022/05/02 09:13:15;;;;;;;0.93;0.13;;;13.20;38.20;;;;;;4216684;28;20106;-84
2022/05/02 09:15:53;;;;;;;0.10;0.10;;;13.20;38.00;;;;;;4217720;28;20040;-84
2022/05/02 09:18:00;;;;;;;0.68;0.20;;;13.30;37.30;;;;;;4204371;28;20036;-85
2022/05/02 09:20:19;;;;;;;0.25;0.22;;;13.30;37.70;;;;;;4198423;28;20024;-84
2022/05/02 09:22:45;;;;;;;1.40;0.15;;;13.30;37.80;;;;;;4217053;28;20024;-84
2022/05/02 09:25:10;;;;;;;0.88;0.32;;;13.40;37.20;;;;;;4210664;28;20093;-84
2022/05/02 09:30:18;;;;;;;1.98;0.30;;;13.50;37.50;;;;;;4200195;28;20036;-83
2022/05/02 09:32:45;;;;;;;2.70;0.20;;;13.60;37.60;;;;;;4195500;28;20033;-82
2022/05/02 09:34:58;;;;;;;0.50;0.30;;;13.60;37.40;;;;;;4198115;28;20545;-82
2022/05/02 09:37:06;;;;;;;1.30;0.30;;;13.60;37.40;;;;;;4202529;28;20083;-83
2022/05/02 09:39:52;;;;;;;1.60;0.40;;;13.80;37.60;;;;;;4198899;28;20055;-84
2022/05/02 09:42:26;;;;;;;0.80;0.30;;;13.80;37.30;;;;;;4138371;28;20042;-84
2022/05/02 09:50:33;;;;;;;1.35;0.40;;;13.90;35.10;;;;;;4138256;28;20025;-84
2022/05/02 09:53:04;;;;;;;0.68;0.20;;;13.90;35.80;;;;;;4137122;28;20225;-82
2022/05/02 09:58:15;;;;;;;0.98;0.30;;;14.10;35.80;;;;;;4142127;28;20030;-83
2022/05/02 10:02:46;;;;;;;1.23;0.38;;;14.20;34.50;;;;;;4142871;28;20220;-83
2022/05/02 10:05:06;;;;;;;0.52;0.17;;;14.20;33.70;;;;;;4141812;28;20101;-82
2022/05/02 10:07:11;;;;;;;1.15;0.40;;;14.20;34.30;;;;;;4122208;28;20030;-82
2022/05/02 10:09:42;;;;;;;1.00;0.45;;;14.20;34.50;;;;;;4137420;28;20034;-81
2022/05/02 10:12:10;;;;;;;1.48;0.30;;;14.30;35.10;;;;;;4124010;28;20070;-84
2022/05/02 10:14:48;;;;;;;1.35;0.30;;;14.30;34.30;;;;;;4138141;28;20095;-83
2022/05/02 10:17:00;;;;;;;0.35;0.20;;;14.30;34.00;;;;;;4141861;28;20371;-82
2022/05/02 10:19:20;;;;;;;0.95;0.20;;;14.40;34.70;;;;;;4168280;28;20125;-83
2022/05/02 10:21:41;;;;;;;2.75;0.38;;;14.40;34.00;;;;;;4176302;28;20037;-83
2022/05/02 10:24:07;;;;;;;0.50;0.40;;;14.50;34.60;;;;;;4176895;28;20031;-82
2022/05/02 10:26:32;;;;;;;0.75;0.43;;;14.50;34.00;;;;;;4161106;28;20029;-82
2022/05/02 10:28:47;;;;;;;3.72;0.50;;;14.50;34.80;;;;;;4162637;28;20025;-83
2022/05/02 10:31:29;;;;;;;0.75;0.28;;;14.60;34.50;;;;;;4193181;28;20051;-83
2022/05/02 10:33:45;;;;;;;0.50;0.38;;;14.50;34.40;;;;;;4114214;28;20081;-83
2022/05/02 10:35:46;;;;;;;0.65;0.28;;;14.60;33.50;;;;;;4113276;28;20059;-83
2022/05/02 10:38:35;;;;;;;4.15;0.60;;;14.60;34.60;;;;;;4109805;28;20042;-82
2022/05/02 10:41:07;;;;;;;0.28;0.22;;;14.60;34.00;;;;;;4047702;29;20042;-81
2022/05/02 10:43:10;;;;;;;2.13;0.40;;;14.70;34.00;;;;;;4061956;29;20036;-82
2022/05/02 10:45:11;;;;;;;;;;;14.70;33.80;;;;;;4073877;28;20281;-83
2022/05/02 10:47:18;;;;;;;0.57;0.30;;;14.70;34.40;;;;;;4098031;28;19919;-82
2022/05/02 10:49:43;;;;;;;0.90;0.30;;;14.70;34.40;;;;;;4112911;28;20050;-81
2022/05/02 10:52:21;;;;;;;1.45;0.40;;;14.80;34.00;;;;;;4109335;28;20043;-83
2022/05/02 10:54:36;;;;;;;0.82;0.45;;;14.80;34.50;;;;;;4116150;28;20042;-83
2022/05/02 10:56:46;;;;;;;0.88;0.20;;;14.80;34.40;;;;;;4114390;28;20118;-82
2022/05/02 10:58:47;;;;;;;0.82;0.55;;;14.80;34.40;;;;;;4114457;28;20022;-81
2022/05/02 11:01:14;;;;;;;0.95;0.35;;;14.90;34.40;;;;;;4116352;28;20042;-83
2022/05/02 11:03:24;;;;;;;1.98;0.30;;;14.90;34.30;;;;;;4115800;28;20099;-82
2022/05/02 11:05:28;;;;;;;0.70;0.20;;;14.90;34.30;;;;;;4112159;28;20557;-83
2022/05/02 11:08:02;;;;;;;0.95;0.38;;;15.00;34.00;;;;;;4113819;28;20039;-82
2022/05/02 11:10:11;;;;;;;9.80;0.55;;;15.00;33.50;;;;;;4177875;28;20036;-83
2022/05/02 11:12:19;;;;;;;0.75;0.30;;;15.00;33.80;;;;;;4191781;28;20052;-82
2022/05/02 11:15:01;;;;;;;0.77;0.40;;;15.00;33.90;;;;;;4191256;28;20029;-82
2022/05/02 11:17:16;;;;;;;0.82;0.45;;;15.00;33.50;;;;;;4180582;28;20025;-83
2022/05/02 11:22:10;;;;;;;0.68;0.43;;;15.00;33.40;;;;;;4334773;23;20045;-82
2022/05/02 11:24:38;;;;;;;2.13;0.55;;;15.10;33.80;;;;;;4154615;28;20045;-82
2022/05/02 11:26:46;;;;;;;1.90;0.50;;;15.10;34.20;;;;;;4138654;28;20081;-82
2022/05/02 11:29:10;;;;;;;2.78;0.50;;;15.10;33.50;;;;;;4138778;28;20120;-83
2022/05/02 11:31:35;;;;;;;1.10;0.25;;;15.10;33.70;;;;;;4177410;23;20036;-87
2022/05/02 11:33:42;;;;;;;;;;;15.10;33.80;;;;;;4184449;28;20055;-88
2022/05/02 11:35:54;;;;;;;1.58;0.32;;;15.10;33.80;;;;;;4181108;28;20300;-86
2022/05/02 11:38:10;;;;;;;1.83;0.40;;;15.10;33.80;;;;;;4171950;28;20044;-87
2022/05/02 11:40:11;;;;;;;1.08;0.40;;;15.10;33.90;;;;;;4175448;28;20984;-86
2022/05/02 11:42:15;;;;;;;3.70;0.63;;;15.10;33.70;;;;;;4177672;28;20431;-89
2022/05/02 11:44:18;;;;;;;1.95;0.30;;;15.10;34.50;;;;;;4179367;28;20028;-87
2022/05/02 11:46:24;;;;;;;2.05;0.30;;;15.10;34.50;;;;;;4179154;28;20242;-88
2022/05/02 11:48:45;;;;;;;0.63;0.30;;;15.10;34.70;;;;;;4179125;28;20124;-86
2022/05/02 11:50:47;;;;;;;0.50;0.28;;;15.10;33.40;;;;;;4177127;28;20589;-82
2022/05/02 11:52:56;;;;;;;1.10;0.47;;;15.10;34.20;;;;;;4190806;28;22083;-86
2022/05/02 11:55:00;;;;;;;1.42;0.30;;;15.10;34.20;;;;;;4180978;28;20020;-87
2022/05/02 11:57:22;;;;;;;0.40;0.30;;;15.10;33.70;;;;;;4179097;28;20057;-86
2022/05/02 11:59:29;;;;;;;3.65;0.32;;;15.10;34.00;;;;;;4192905;28;20044;-87
2022/05/02 12:01:37;;;;;;;1.50;0.40;;;15.10;33.60;;;;;;4199614;28;20303;-88
2022/05/02 12:03:50;;;;;;;1.42;0.22;;;15.10;34.20;;;;;;4196690;28;20024;-88
2022/05/02 12:06:01;;;;;;;4.63;0.70;;;15.10;33.80;;;;;;4181120;28;20043;-87
2022/05/02 12:08:04;;;;;;;3.95;0.50;;;15.10;33.80;;;;;;4176413;28;20052;-88
2022/05/02 12:10:07;;;;;;;2.85;0.30;;;15.10;33.60;;;;;;4184846;28;20043;-87
2022/05/02 12:12:08;;;;;;;;;;;15.10;34.00;;;;;;4182068;28;20138;-85
2022/05/02 12:14:18;;;;;;;0.22;0.20;;;15.10;33.60;;;;;;4186502;28;20571;-87
2022/05/02 12:16:20;;;;;;;1.45;0.30;;;15.10;33.30;;;;;;4194400;28;20020;-88
2022/05/02 12:18:21;;;;;;;1.25;0.40;;;15.20;33.40;;;;;;4173156;28;20073;-87
2022/05/02 12:20:42;;;;;;;1.50;0.30;;;15.20;33.60;;;;;;4175958;28;21556;-87
2022/05/02 12:22:42;;;;;;;1.63;0.40;;;15.20;33.30;;;;;;4176682;28;20059;-88
2022/05/02 12:24:45;;;;;;;2.03;0.28;;;15.20;33.80;;;;;;4177344;28;20505;-90
2022/05/02 12:26:52;;;;;;;0.60;0.20;;;15.20;33.30;;;;;;4195238;28;20077;-87
2022/05/02 12:29:00;;;;;;;0.93;0.30;;;15.20;33.40;;;;;;4176958;28;20111;-89
2022/05/02 12:31:01;;;;;;;2.78;0.38;;;15.20;33.70;;;;;;4173610;28;20040;-88
2022/05/02 12:33:05;;;;;;;1.50;0.43;;;15.20;33.80;;;;;;4177827;28;20256;-86
2022/05/02 12:35:07;;;;;;;1.95;0.22;;;15.10;33.70;;;;;;4170732;28;20597;-85
2022/05/02 12:37:25;;;;;;;0.93;0.20;;;15.20;34.10;;;;;;4171070;28;20508;-87
2022/05/02 12:39:28;;;;;;;1.75;0.30;;;15.20;33.80;;;;;;4176726;28;20294;-87
2022/05/02 12:41:29;;;;;;;;;;;15.20;33.60;;;;;;4192056;28;20024;-87
2022/05/02 12:43:44;;;;;;;0.30;0.20;;;15.20;33.70;;;;;;4178731;28;19926;-90
2022/05/02 12:45:46;;;;;;;0.38;0.20;;;15.30;33.70;;;;;;4176498;28;20020;-87
2022/05/02 12:47:52;;;;;;;0.13;0.13;;;15.30;33.40;;;;;;4181308;28;20040;-88